Time,TemperatureF,DewpointF,PressureIn,WindDirection,WindDirectionDegrees,WindSpeedMPH,WindSpeedGustMPH,Humidity,HourlyPrecipIn,Conditions,Clouds,dailyrainin,SoftwareType,DateUTC
2013-04-12 00:03:00,37.0,32.0,29.85,North,0,0.0,-999.0,80,-99.99,,,-99.99,,2013-04-12 05:03:00,
2013-04-12 00:12:00,36.0,32.0,29.86,North,0,0.0,-999.0,86,-99.99,,,-99.99,,2013-04-12 05:12:00,
2013-04-12 00:22:00,36.0,32.0,29.87,North,0,0.0,-999.0,86,-99.99,,,-99.99,,2013-04-12 05:22:00,
2013-04-12 00:32:00,36.0,32.0,29.87,North,0,0.0,-999.0,86,-99.99,,,-99.99,,2013-04-12 05:32:00,
2013-04-12 00:42:00,36.0,30.0,29.87,North,0,0.0,-999.0,80,-99.99,,,-99.99,,2013-04-12 05:42:00,
2013-04-12 00:52:00,34.0,30.0,29.88,North,0,0.0,-999.0,86,-99.99,,,-99.99,,2013-04-12 05:52:00,
2013-04-12 01:02:00,34.0,30.0,29.88,North,0,0.0,-999.0,86,-99.99,,,-99.99,,2013-04-12 06:02:00,
2013-04-12 01:12:00,34.0,30.0,29.87,West,280,3.0,-999.0,86,-99.99,,,-99.99,,2013-04-12 06:12:00,
2013-04-12 01:22:00,32.0,30.0,29.87,NW,310,6.0,-999.0,92,-99.99,,,-99.99,,2013-04-12 06:22:00,
2013-04-12 01:42:00,32.0,30.0,29.87,WNW,300,6.0,-999.0,92,-99.99,,,-99.99,,2013-04-12 06:42:00,
2013-04-12 01:52:00,32.0,30.0,29.88,West,280,7.0,-999.0,92,-99.99,,,-99.99,,2013-04-12 06:52:00,
2013-04-12 02:01:00,32.0,30.0,29.88,West,280,7.0,-999.0,92,-99.99,,,-99.99,,2013-04-12 07:01:00,
2013-04-12 02:11:00,32.0,30.0,29.88,NW,310,7.0,-999.0,92,-99.99,,,-99.99,,2013-04-12 07:11:00,
2013-04-12 02:22:00,34.0,30.0,29.89,NW,310,8.0,-999.0,86,-99.99,,,-99.99,,2013-04-12 07:22:00,
2013-04-12 02:32:00,34.0,30.0,29.89,NW,310,7.0,-999.0,86,-99.99,,,-99.99,,2013-04-12 07:32:00,
2013-04-12 02:42:00,34.0,30.0,29.89,WNW,300,6.0,-999.0,86,-99.99,,,-99.99,,2013-04-12 07:42:00,
2013-04-12 02:52:00,34.0,30.0,29.89,WNW,300,6.0,-999.0,86,-99.99,,,-99.99,,2013-04-12 07:52:00,
2013-04-12 03:03:00,34.0,30.0,29.89,WNW,300,6.0,-999.0,86,-99.99,,,-99.99,,2013-04-12 08:03:00,
2013-04-12 03:12:00,32.0,28.0,29.89,West,280,7.0,-999.0,86,-99.99,,,-99.99,,2013-04-12 08:12:00,
2013-04-12 03:22:00,32.0,30.0,29.89,WNW,300,6.0,-999.0,92,-99.99,,,-99.99,,2013-04-12 08:22:00,
2013-04-12 03:32:00,32.0,28.0,29.89,West,280,6.0,-999.0,86,-99.99,,,-99.99,,2013-04-12 08:32:00,
2013-04-12 03:42:00,32.0,28.0,29.89,WNW,290,6.0,-999.0,86,-99.99,,,-99.99,,2013-04-12 08:42:00,
2013-04-12 03:52:00,32.0,28.0,29.90,West,280,7.0,-999.0,86,-99.99,,,-99.99,,2013-04-12 08:52:00,
2013-04-12 04:02:00,32.0,28.0,29.90,West,280,7.0,-999.0,86,-99.99,,,-99.99,,2013-04-12 09:02:00,
2013-04-12 04:12:00,32.0,28.0,29.90,WNW,300,7.0,-999.0,86,-99.99,,,-99.99,,2013-04-12 09:12:00,
2013-04-12 04:22:00,32.0,28.0,29.90,NW,310,7.0,-999.0,86,-99.99,,,-99.99,,2013-04-12 09:22:00,
2013-04-12 04:32:00,32.0,28.0,29.91,WNW,300,7.0,-999.0,86,-99.99,,,-99.99,,2013-04-12 09:32:00,
2013-04-12 04:43:00,32.0,28.0,29.91,WNW,300,7.0,-999.0,86,-99.99,,,-99.99,,2013-04-12 09:43:00,
2013-04-12 04:52:00,32.0,28.0,29.91,NW,320,7.0,-999.0,86,-99.99,,,-99.99,,2013-04-12 09:52:00,
2013-04-12 05:02:00,32.0,28.0,29.91,NW,320,7.0,-999.0,86,-99.99,,,-99.99,,2013-04-12 10:02:00,
2013-04-12 05:12:00,32.0,28.0,29.91,WNW,300,6.0,-999.0,86,-99.99,,,-99.99,,2013-04-12 10:12:00,
2013-04-12 05:23:00,30.0,28.0,29.92,West,270,6.0,-999.0,92,-99.99,,,-99.99,,2013-04-12 10:23:00,
2013-04-12 05:34:00,30.0,27.0,29.92,West,280,6.0,-999.0,86,-99.99,,,-99.99,,2013-04-12 10:34:00,
2013-04-12 05:42:00,30.0,27.0,29.92,WNW,300,5.0,-999.0,86,-99.99,,,-99.99,,2013-04-12 10:42:00,
2013-04-12 05:52:00,30.0,28.0,29.92,WNW,290,5.0,-999.0,92,-99.99,,,-99.99,,2013-04-12 10:52:00,
2013-04-12 06:02:00,30.0,28.0,29.92,WNW,290,5.0,-999.0,92,-99.99,,,-99.99,,2013-04-12 11:02:00,
2013-04-12 06:12:00,30.0,28.0,29.92,NW,310,6.0,-999.0,92,-99.99,,,-99.99,,2013-04-12 11:12:00,
2013-04-12 06:22:00,32.0,28.0,29.93,NW,320,6.0,-999.0,86,-99.99,,,-99.99,,2013-04-12 11:22:00,
2013-04-12 06:32:00,32.0,28.0,29.92,NW,310,7.0,-999.0,86,-99.99,,,-99.99,,2013-04-12 11:32:00,
2013-04-12 06:42:00,32.0,28.0,29.93,WNW,300,7.0,-999.0,86,-99.99,,,-99.99,,2013-04-12 11:42:00,
2013-04-12 06:52:00,32.0,28.0,29.93,NW,320,8.0,-999.0,86,-99.99,,,-99.99,,2013-04-12 11:52:00,
2013-04-12 07:02:00,32.0,28.0,29.93,NW,320,8.0,-999.0,86,-99.99,,,-99.99,,2013-04-12 12:02:00,
2013-04-12 07:12:00,32.0,28.0,29.95,NW,320,10.0,-999.0,86,-99.99,,,-99.99,,2013-04-12 12:12:00,
2013-04-12 07:22:00,34.0,28.0,29.95,NW,320,9.0,-999.0,80,-99.99,,,-99.99,,2013-04-12 12:22:00,
2013-04-12 07:32:00,34.0,28.0,29.96,NW,320,9.0,-999.0,80,-99.99,,,-99.99,,2013-04-12 12:32:00,
2013-04-12 07:42:00,34.0,28.0,29.96,NNW,330,9.0,-999.0,80,-99.99,,,-99.99,,2013-04-12 12:42:00,
2013-04-12 07:52:00,34.0,28.0,29.96,NW,320,7.0,-999.0,80,-99.99,,,-99.99,,2013-04-12 12:52:00,
2013-04-12 08:03:00,34.0,28.0,29.96,NW,320,7.0,-999.0,80,-99.99,,,-99.99,,2013-04-12 13:03:00,
2013-04-12 08:12:00,34.0,28.0,29.97,NW,310,6.0,-999.0,80,-99.99,,,-99.99,,2013-04-12 13:12:00,
2013-04-12 08:22:00,36.0,30.0,29.97,WNW,300,7.0,-999.0,80,-99.99,,,-99.99,,2013-04-12 13:22:00,
2013-04-12 08:32:00,36.0,30.0,29.98,West,270,7.0,-999.0,80,-99.99,,,-99.99,,2013-04-12 13:32:00,
2013-04-12 08:42:00,36.0,30.0,29.98,West,260,5.0,-999.0,80,-99.99,,,-99.99,,2013-04-12 13:42:00,
2013-04-12 08:52:00,37.0,32.0,29.98,West,280,7.0,-999.0,80,-99.99,,,-99.99,,2013-04-12 13:52:00,
2013-04-12 09:03:00,37.0,32.0,29.98,West,280,7.0,-999.0,80,-99.99,,,-99.99,,2013-04-12 14:03:00,
2013-04-12 09:12:00,37.0,32.0,29.98,WNW,300,8.0,-999.0,80,-99.99,,,-99.99,,2013-04-12 14:12:00,
2013-04-12 09:22:00,39.0,30.0,29.98,NW,320,10.0,-999.0,69,-99.99,,,-99.99,,2013-04-12 14:22:00,
2013-04-12 09:32:00,39.0,30.0,29.98,NW,310,10.0,-999.0,69,-99.99,,,-99.99,,2013-04-12 14:32:00,
2013-04-12 09:42:00,41.0,30.0,29.98,NW,310,7.0,-999.0,65,-99.99,,,-99.99,,2013-04-12 14:42:00,
2013-04-12 09:52:00,41.0,30.0,29.99,NW,320,10.0,-999.0,65,-99.99,,,-99.99,,2013-04-12 14:52:00,
2013-04-12 10:02:00,41.0,30.0,29.99,NW,320,10.0,-999.0,65,-99.99,,,-99.99,,2013-04-12 15:02:00,
2013-04-12 10:12:00,43.0,30.0,30.00,WNW,300,9.0,-999.0,60,-99.99,,,-99.99,,2013-04-12 15:12:00,
2013-04-12 10:22:00,45.0,30.0,30.00,NW,320,10.0,-999.0,56,-99.99,,,-99.99,,2013-04-12 15:22:00,
2013-04-12 10:33:00,43.0,30.0,30.00,NNW,330,12.0,16.0,60,-99.99,,,-99.99,,2013-04-12 15:33:00,
2013-04-12 10:43:00,45.0,30.0,30.00,NNW,340,8.0,-999.0,56,-99.99,,,-99.99,,2013-04-12 15:43:00,
2013-04-12 10:53:00,45.0,30.0,30.00,North,350,8.0,-999.0,56,-99.99,,,-99.99,,2013-04-12 15:53:00,
2013-04-12 11:03:00,45.0,30.0,30.00,North,350,8.0,-999.0,56,-99.99,,,-99.99,,2013-04-12 16:03:00,
2013-04-12 11:13:00,46.0,32.0,30.00,North,350,6.0,-999.0,57,-99.99,,,-99.99,,2013-04-12 16:13:00,
2013-04-12 11:23:00,46.0,32.0,30.00,NW,320,7.0,-999.0,57,-99.99,,,-99.99,,2013-04-12 16:23:00,
2013-04-12 11:33:00,46.0,34.0,30.00,NW,320,8.0,16.0,61,-99.99,,,-99.99,,2013-04-12 16:33:00,
2013-04-12 11:42:00,46.0,32.0,30.01,NNW,330,9.0,16.0,57,-99.99,,,-99.99,,2013-04-12 16:42:00,
2013-04-12 11:52:00,46.0,32.0,30.00,WNW,300,6.0,-999.0,57,-99.99,,,-99.99,,2013-04-12 16:52:00,
2013-04-12 12:03:00,46.0,32.0,30.00,WNW,300,6.0,-999.0,57,-99.99,,,-99.99,,2013-04-12 17:03:00,
2013-04-12 12:12:00,48.0,32.0,30.00,WNW,300,5.0,-999.0,53,-99.99,,,-99.99,,2013-04-12 17:12:00,
2013-04-12 12:33:00,50.0,34.0,30.00,NNW,340,7.0,-999.0,53,-99.99,,,-99.99,,2013-04-12 17:33:00,
2013-04-12 12:44:00,50.0,34.0,30.00,North,360,5.0,-999.0,53,-99.99,,,-99.99,,2013-04-12 17:44:00,
2013-04-12 12:57:00,52.0,32.0,30.01,NW,320,7.0,-999.0,46,-99.99,,,-99.99,,2013-04-12 17:57:00,
2013-04-12 13:09:00,52.0,32.0,30.01,NW,320,7.0,-999.0,46,-99.99,,,-99.99,,2013-04-12 18:09:00,
2013-04-12 13:15:00,52.0,34.0,30.01,WNW,300,7.0,-999.0,50,-99.99,,,-99.99,,2013-04-12 18:15:00,
2013-04-12 14:26:00,55.0,34.0,29.99,WNW,290,7.0,-999.0,43,-99.99,,,-99.99,,2013-04-12 19:26:00,
2013-04-12 14:32:00,55.0,34.0,29.99,West,280,3.0,-999.0,43,-99.99,,,-99.99,,2013-04-12 19:32:00,
2013-04-12 14:42:00,55.0,34.0,29.98,North,0,0.0,-999.0,43,-99.99,,,-99.99,,2013-04-12 19:42:00,
2013-04-12 14:52:00,57.0,34.0,29.99,WSW,240,5.0,-999.0,41,-99.99,,,-99.99,,2013-04-12 19:52:00,
2013-04-12 15:02:00,57.0,34.0,29.99,WSW,240,5.0,-999.0,41,-99.99,,,-99.99,,2013-04-12 20:02:00,
2013-04-12 15:12:00,57.0,34.0,29.98,WSW,250,5.0,-999.0,41,-99.99,,,-99.99,,2013-04-12 20:12:00,
2013-04-12 15:22:00,57.0,37.0,29.98,WNW,300,7.0,-999.0,47,-99.99,,,-99.99,,2013-04-12 20:22:00,
2013-04-12 15:32:00,57.0,34.0,29.98,North,0,0.0,-999.0,41,-99.99,,,-99.99,,2013-04-12 20:32:00,
2013-04-12 15:42:00,57.0,34.0,29.97,WNW,300,7.0,-999.0,41,-99.99,,,-99.99,,2013-04-12 20:42:00,
2013-04-12 15:52:00,57.0,34.0,29.97,WSW,240,5.0,-999.0,41,-99.99,,,-99.99,,2013-04-12 20:52:00,
2013-04-12 16:02:00,57.0,34.0,29.97,WSW,240,5.0,-999.0,41,-99.99,,,-99.99,,2013-04-12 21:02:00,
2013-04-12 16:12:00,57.0,36.0,29.96,NW,320,5.0,-999.0,44,-99.99,,,-99.99,,2013-04-12 21:12:00,
2013-04-12 16:22:00,59.0,36.0,29.95,WNW,290,10.0,-999.0,41,-99.99,,,-99.99,,2013-04-12 21:22:00,
2013-04-12 16:33:00,59.0,34.0,29.95,North,0,0.0,-999.0,38,-99.99,,,-99.99,,2013-04-12 21:33:00,
2013-04-12 16:43:00,59.0,34.0,29.94,NW,310,6.0,-999.0,38,-99.99,,,-99.99,,2013-04-12 21:43:00,
2013-04-12 16:52:00,59.0,36.0,29.94,West,270,6.0,-999.0,41,-99.99,,,-99.99,,2013-04-12 21:52:00,
2013-04-12 17:02:00,59.0,36.0,29.94,West,270,6.0,-999.0,41,-99.99,,,-99.99,,2013-04-12 22:02:00,
2013-04-12 17:12:00,59.0,36.0,29.94,West,280,8.0,-999.0,41,-99.99,,,-99.99,,2013-04-12 22:12:00,
2013-04-12 17:22:00,59.0,36.0,29.94,NW,310,7.0,-999.0,41,-99.99,,,-99.99,,2013-04-12 22:22:00,
2013-04-12 17:32:00,59.0,36.0,29.94,NNW,330,5.0,-999.0,41,-99.99,,,-99.99,,2013-04-12 22:32:00,
2013-04-12 17:42:00,59.0,36.0,29.94,North,0,0.0,-999.0,41,-99.99,,,-99.99,,2013-04-12 22:42:00,
2013-04-12 17:52:00,59.0,34.0,29.94,WNW,290,6.0,-999.0,38,-99.99,,,-99.99,,2013-04-12 22:52:00,
2013-04-12 18:03:00,59.0,34.0,29.94,WNW,290,6.0,-999.0,38,-99.99,,,-99.99,,2013-04-12 23:03:00,
2013-04-12 18:12:00,59.0,37.0,29.94,NNW,340,7.0,-999.0,44,-99.99,,,-99.99,,2013-04-12 23:12:00,
2013-04-12 18:22:00,59.0,36.0,29.94,North,0,0.0,-999.0,41,-99.99,,,-99.99,,2013-04-12 23:22:00,
2013-04-12 18:32:00,59.0,36.0,29.94,NNW,330,5.0,-999.0,41,-99.99,,,-99.99,,2013-04-12 23:32:00,
2013-04-12 18:42:00,59.0,36.0,29.94,WNW,300,3.0,-999.0,41,-99.99,,,-99.99,,2013-04-12 23:42:00,
2013-04-12 18:52:00,59.0,36.0,29.94,NNW,330,5.0,-999.0,41,-99.99,,,-99.99,,2013-04-12 23:52:00,
2013-04-12 19:02:00,59.0,36.0,29.94,NNW,330,5.0,-999.0,41,-99.99,,,-99.99,,2013-04-13 00:02:00,
2013-04-12 19:12:00,57.0,36.0,29.93,North,350,3.0,-999.0,44,-99.99,,,-99.99,,2013-04-13 00:12:00,
2013-04-12 19:22:00,57.0,36.0,29.93,North,0,0.0,-999.0,44,-99.99,,,-99.99,,2013-04-13 00:22:00,
2013-04-12 19:32:00,57.0,36.0,29.93,North,0,0.0,-999.0,44,-99.99,,,-99.99,,2013-04-13 00:32:00,
2013-04-12 19:42:00,57.0,36.0,29.93,North,0,0.0,-999.0,44,-99.99,,,-99.99,,2013-04-13 00:42:00,
2013-04-12 19:52:00,57.0,36.0,29.93,North,0,0.0,-999.0,44,-99.99,,,-99.99,,2013-04-13 00:52:00,
2013-04-12 20:02:00,57.0,36.0,29.93,North,0,0.0,-999.0,44,-99.99,,,-99.99,,2013-04-13 01:02:00,
2013-04-12 20:12:00,55.0,36.0,29.93,North,0,0.0,-999.0,47,-99.99,,,-99.99,,2013-04-13 01:12:00,
2013-04-12 20:22:00,55.0,37.0,29.93,SE,130,5.0,-999.0,50,-99.99,,,-99.99,,2013-04-13 01:22:00,
2013-04-12 20:32:00,52.0,37.0,29.94,East,100,7.0,-999.0,57,-99.99,,,-99.99,,2013-04-13 01:32:00,
2013-04-12 20:42:00,52.0,39.0,29.94,ESE,120,7.0,-999.0,61,-99.99,,,-99.99,,2013-04-13 01:42:00,
2013-04-12 20:52:00,52.0,39.0,29.94,ESE,120,8.0,-999.0,61,-99.99,,,-99.99,,2013-04-13 01:52:00,
2013-04-12 21:02:00,52.0,39.0,29.94,ESE,120,8.0,-999.0,61,-99.99,,,-99.99,,2013-04-13 02:02:00,
2013-04-12 21:12:00,50.0,41.0,29.96,ESE,120,7.0,-999.0,71,-99.99,,,-99.99,,2013-04-13 02:12:00,
2013-04-12 21:22:00,50.0,41.0,29.97,ESE,120,7.0,-999.0,71,-99.99,,,-99.99,,2013-04-13 02:22:00,
2013-04-12 21:32:00,48.0,41.0,29.98,ESE,110,6.0,-999.0,76,-99.99,,,-99.99,,2013-04-13 02:32:00,
2013-04-12 21:42:00,48.0,39.0,29.98,East,90,6.0,-999.0,70,-99.99,,,-99.99,,2013-04-13 02:42:00,
2013-04-12 21:52:00,48.0,41.0,29.99,East,90,5.0,-999.0,76,-99.99,,,-99.99,,2013-04-13 02:52:00,
2013-04-12 22:02:00,48.0,41.0,29.99,East,90,5.0,-999.0,76,-99.99,,,-99.99,,2013-04-13 03:02:00,
2013-04-12 22:12:00,46.0,39.0,29.99,ESE,110,6.0,-999.0,75,-99.99,,,-99.99,,2013-04-13 03:12:00,
2013-04-12 22:22:00,46.0,39.0,29.99,SE,130,7.0,-999.0,75,-99.99,,,-99.99,,2013-04-13 03:22:00,
2013-04-12 22:33:00,46.0,39.0,30.00,ESE,120,7.0,-999.0,75,-99.99,,,-99.99,,2013-04-13 03:33:00,
2013-04-12 22:42:00,46.0,39.0,29.99,ESE,110,7.0,-999.0,75,-99.99,,,-99.99,,2013-04-13 03:42:00,
2013-04-12 22:52:00,46.0,39.0,30.00,ESE,120,6.0,-999.0,75,-99.99,,,-99.99,,2013-04-13 03:52:00,
2013-04-12 23:03:00,46.0,39.0,30.00,ESE,120,6.0,-999.0,75,-99.99,,,-99.99,,2013-04-13 04:03:00,
2013-04-12 23:12:00,46.0,39.0,30.01,ESE,120,3.0,-999.0,75,-99.99,,,-99.99,,2013-04-13 04:12:00,
2013-04-12 23:23:00,43.0,39.0,30.03,North,0,0.0,-999.0,86,-99.99,,,-99.99,,2013-04-13 04:23:00,
2013-04-12 23:33:00,45.0,39.0,30.03,North,0,0.0,-999.0,81,-99.99,,,-99.99,,2013-04-13 04:33:00,
2013-04-12 23:42:00,43.0,37.0,30.03,North,0,0.0,-999.0,81,-99.99,,,-99.99,,2013-04-13 04:42:00,
2013-04-12 23:53:00,43.0,39.0,30.03,North,0,0.0,-999.0,86,-99.99,,,-99.99,,2013-04-13 04:53:00,